createdAt,value
2023-03-30T00:03:39.226Z,96779.69
2023-03-30T00:08:43.902Z,96767.41
2023-03-30T00:13:47.568Z,96771.13
2023-03-30T00:18:50.812Z,96777.00
2023-03-30T00:23:55.559Z,96762.13
2023-03-30T00:28:58.724Z,96766.47
2023-03-30T00:34:01.793Z,96765.34
2023-03-30T00:39:08.562Z,96758.34
2023-03-30T00:44:45.072Z,96731.38
2023-03-30T00:49:48.762Z,96728.47
2023-03-30T00:54:57.307Z,96718.56
2023-03-30T01:00:00.901Z,96712.63
2023-03-30T01:05:06.263Z,96703.59
2023-03-30T01:10:12.803Z,96696.63
2023-03-30T01:15:17.807Z,96685.63
2023-03-30T01:20:41.212Z,96686.13
2023-03-30T01:26:09.768Z,96688.78
2023-03-30T01:31:32.406Z,96685.69
2023-03-30T01:37:01.532Z,96673.31
2023-03-30T01:42:13.963Z,96664.25
2023-03-30T01:47:20.916Z,96673.47
2023-03-30T01:52:28.948Z,96668.75
2023-03-30T01:57:39.401Z,96649.19
2023-03-30T02:02:47.130Z,96654.19
2023-03-30T02:07:54.093Z,96676.78
2023-03-30T02:13:01.013Z,96680.63
2023-03-30T02:18:05.015Z,96690.41
2023-03-30T02:23:08.641Z,96702.03
2023-03-30T02:28:13.538Z,96696.84
2023-03-30T02:33:28.567Z,96707.69
2023-03-30T02:38:56.162Z,96717.19
2023-03-30T02:44:11.305Z,96718.44
2023-03-30T02:49:21.850Z,96719.44
2023-03-30T02:54:37.545Z,96724.97
2023-03-30T03:00:01.943Z,96730.38
2023-03-30T03:05:07.910Z,96715.28
2023-03-30T03:10:25.996Z,96701.53
2023-03-30T03:15:30.714Z,96704.06
2023-03-30T03:20:43.594Z,96700.78
2023-03-30T03:25:48.410Z,96697.94
2023-03-30T03:30:55.660Z,96696.97
2023-03-30T03:36:01.184Z,96690.16
2023-03-30T03:41:07.492Z,96692.78
2023-03-30T03:46:13.002Z,96713.28
2023-03-30T03:51:16.214Z,96730.28
2023-03-30T03:56:19.733Z,96737.97
2023-03-30T04:01:24.396Z,96742.00
2023-03-30T04:06:28.691Z,96749.47
2023-03-30T04:11:32.548Z,96762.69
2023-03-30T04:16:57.828Z,96760.34
2023-03-30T04:22:27.050Z,96767.41
2023-03-30T04:27:57.875Z,96752.25
2023-03-30T04:33:35.201Z,96771.16
2023-03-30T04:38:59.803Z,96752.28
2023-03-30T04:44:22.197Z,96751.03
2023-03-30T04:50:02.784Z,96753.69
2023-03-30T04:55:14.921Z,96755.75
2023-03-30T05:00:30.604Z,96728.94
2023-03-30T05:05:58.272Z,96697.72
2023-03-30T05:11:30.931Z,96657.03
2023-03-30T05:16:42.170Z,96657.03
2023-03-30T05:22:12.622Z,96602.06
2023-03-30T05:27:38.687Z,96556.94
2023-03-30T05:32:51.464Z,96548.25
2023-03-30T05:38:14.835Z,96540.66
2023-03-30T05:43:56.430Z,96554.81
2023-03-30T05:49:20.068Z,96556.53
2023-03-30T05:54:47.498Z,96556.50
2023-03-30T06:00:13.693Z,96549.41
2023-03-30T06:05:26.641Z,96558.66
2023-03-30T06:10:32.356Z,96554.75
2023-03-30T06:15:35.670Z,96561.94
2023-03-30T06:20:47.759Z,96559.22
2023-03-30T06:25:54.611Z,96551.50
2023-03-30T06:31:09.613Z,96560.25
2023-03-30T06:36:15.233Z,96567.09
2023-03-30T06:41:23.059Z,96547.25
2023-03-30T06:46:27.692Z,96557.00
2023-03-30T06:51:31.529Z,96577.16
2023-03-30T06:56:38.546Z,96563.31
2023-03-30T07:01:45.902Z,96564.91
2023-03-30T07:07:09.341Z,96579.28
2023-03-30T07:12:14.294Z,96595.72
2023-03-30T07:17:18.011Z,96593.50
2023-03-30T07:22:21.551Z,96605.91
2023-03-30T07:27:27.229Z,96624.25
2023-03-30T07:32:33.285Z,96661.78
2023-03-30T07:37:38.957Z,96632.28
2023-03-30T07:42:43.732Z,96613.81
2023-03-30T07:47:47.487Z,96594.41
2023-03-30T07:52:52.536Z,96607.81
2023-03-30T07:57:58.254Z,96623.19
2023-03-30T08:03:01.977Z,96639.16
2023-03-30T08:08:08.264Z,96590.94
2023-03-30T08:13:13.878Z,96579.81
2023-03-30T08:18:18.140Z,96582.16
2023-03-30T08:23:21.812Z,96570.88
2023-03-30T08:28:26.759Z,96560.00
2023-03-30T08:33:29.839Z,96538.41
2023-03-30T08:38:33.411Z,96532.72
2023-03-30T08:43:46.727Z,96537.78
2023-03-30T08:48:52.117Z,96547.00
2023-03-30T08:53:59.044Z,96540.56
2023-03-30T08:59:15.703Z,96551.81
2023-03-30T09:04:26.523Z,96562.44
2023-03-30T09:09:32.611Z,96588.00
2023-03-30T09:14:42.599Z,96567.94
2023-03-30T09:19:51.956Z,96566.31
2023-03-30T09:24:55.578Z,96549.31
2023-03-30T09:30:09.431Z,96541.19
2023-03-30T09:35:16.192Z,96538.09
2023-03-30T09:40:28.066Z,96521.44
2023-03-30T09:45:35.716Z,96518.47
2023-03-30T09:50:41.799Z,96518.09
2023-03-30T09:55:56.850Z,96513.88
2023-03-30T10:01:08.414Z,96507.47
2023-03-30T10:06:13.908Z,96498.47
2023-03-30T10:11:21.490Z,96528.25
2023-03-30T10:16:29.311Z,96521.88
2023-03-30T10:21:37.849Z,96530.69
2023-03-30T10:26:44.241Z,96518.94
2023-03-30T10:31:50.898Z,96503.69
2023-03-30T10:36:55.144Z,96515.69
2023-03-30T10:42:02.252Z,96516.47
2023-03-30T10:47:22.069Z,96506.81
2023-03-30T10:52:34.475Z,96506.34
2023-03-30T10:57:46.634Z,96470.13
2023-03-30T11:03:02.498Z,96474.84
2023-03-30T11:08:08.477Z,96504.56
2023-03-30T11:13:17.088Z,96496.47
2023-03-30T11:18:26.980Z,96493.72
2023-03-30T11:23:40.898Z,96486.25
2023-03-30T11:28:54.734Z,96466.66
2023-03-30T11:34:07.126Z,96456.41
2023-03-30T11:39:28.962Z,96460.44
2023-03-30T11:44:34.901Z,96469.69
2023-03-30T11:49:54.493Z,96445.72
2023-03-30T11:55:26.563Z,96449.41
2023-03-30T12:00:42.864Z,96455.22
2023-03-30T12:05:52.090Z,96454.44
2023-03-30T12:11:04.723Z,96462.22
2023-03-30T12:16:11.193Z,96460.22
2023-03-30T12:21:29.816Z,96469.31
2023-03-30T12:26:35.129Z,96462.41
2023-03-30T12:32:07.799Z,96458.94
2023-03-30T12:37:18.231Z,96452.09
2023-03-30T12:42:27.652Z,96433.03
2023-03-30T12:47:49.937Z,96458.72
2023-03-30T12:53:12.496Z,96466.56
2023-03-30T12:58:43.300Z,96460.00
2023-03-30T13:03:52.744Z,96456.88
2023-03-30T13:09:03.521Z,96445.16
2023-03-30T13:14:17.925Z,96469.53
2023-03-30T13:19:28.916Z,96475.00
2023-03-30T13:24:44.489Z,96477.81
2023-03-30T13:29:53.642Z,96542.16
2023-03-30T13:35:24.062Z,96624.38
2023-03-30T13:40:43.726Z,96628.81
2023-03-30T13:46:09.582Z,96640.09
2023-03-30T13:51:24.391Z,96659.38
2023-03-30T13:56:32.695Z,96639.13
2023-03-30T14:01:39.579Z,96604.44
2023-03-30T14:06:45.856Z,96580.47
2023-03-30T14:11:53.646Z,96588.19
2023-03-30T14:16:57.891Z,96574.28
2023-03-30T14:22:04.912Z,96564.19
2023-03-30T14:27:15.389Z,96593.47
2023-03-30T14:32:23.367Z,96573.06
2023-03-30T14:37:27.375Z,96594.50
2023-03-30T14:42:34.918Z,96608.00
2023-03-30T14:47:38.742Z,96611.69
2023-03-30T14:52:44.427Z,96618.16
2023-03-30T14:57:50.359Z,96602.22
2023-03-30T15:02:57.052Z,96590.63
2023-03-30T15:08:00.559Z,96598.50
2023-03-30T15:13:08.557Z,96607.16
2023-03-30T15:18:22.282Z,96612.53
2023-03-30T15:23:27.000Z,96607.06
2023-03-30T15:28:35.120Z,96615.41
2023-03-30T15:33:43.041Z,96627.28
2023-03-30T15:38:50.870Z,96621.19
2023-03-30T15:44:00.349Z,96615.75
2023-03-30T15:49:04.612Z,96602.47
2023-03-30T15:54:13.988Z,96611.13
2023-03-30T15:59:22.053Z,96602.47
2023-03-30T16:04:26.204Z,96600.13
2023-03-30T16:09:29.400Z,96596.56
2023-03-30T16:14:34.566Z,96599.94
2023-03-30T16:19:38.290Z,96608.34
2023-03-30T16:24:42.262Z,96606.13
2023-03-30T16:29:47.004Z,96603.88
2023-03-30T16:34:52.243Z,96603.06
2023-03-30T16:39:55.687Z,96597.22
2023-03-30T16:45:00.280Z,96613.09
2023-03-30T16:50:11.822Z,96618.16
2023-03-30T16:55:15.503Z,96614.78
2023-03-30T17:00:23.652Z,96621.56
2023-03-30T17:05:27.073Z,96617.03
2023-03-30T17:10:33.342Z,96615.69
2023-03-30T17:15:39.137Z,96612.34
2023-03-30T17:20:44.754Z,96628.22
2023-03-30T17:25:49.522Z,96640.09
2023-03-30T17:30:56.646Z,96641.44
2023-03-30T17:36:04.247Z,96645.06
2023-03-30T17:41:08.479Z,96651.03
2023-03-30T17:46:14.538Z,96649.56
2023-03-30T17:51:18.547Z,96659.22
2023-03-30T17:56:22.373Z,96652.38
2023-03-30T18:01:27.574Z,96651.28
2023-03-30T18:06:32.239Z,96649.09
2023-03-30T18:11:35.951Z,96660.34
2023-03-30T18:16:43.774Z,96668.81
2023-03-30T18:21:47.387Z,96678.28
2023-03-30T18:26:50.531Z,96677.41
2023-03-30T18:31:55.494Z,96684.03
2023-03-30T18:36:59.303Z,96692.06
2023-03-30T18:42:03.362Z,96702.16
2023-03-30T18:47:08.494Z,96690.63
2023-03-30T18:52:11.812Z,96697.81
2023-03-30T18:57:15.142Z,96687.84
2023-03-30T19:02:19.866Z,96690.44
2023-03-30T19:07:24.856Z,96710.41
2023-03-30T19:12:28.794Z,96716.50
2023-03-30T19:17:33.562Z,96709.16
2023-03-30T19:22:37.338Z,96713.28
2023-03-30T19:27:52.049Z,96719.28
2023-03-30T19:33:08.711Z,96716.03
2023-03-30T19:38:12.201Z,96719.47
2023-03-30T19:43:16.209Z,96723.91
2023-03-30T19:48:21.196Z,96731.63
2023-03-30T19:53:24.977Z,96732.47
2023-03-30T19:58:28.302Z,96730.13
2023-03-30T20:03:35.399Z,96737.34
2023-03-30T20:08:39.042Z,96719.84
2023-03-30T20:13:45.979Z,96720.22
2023-03-30T20:18:53.035Z,96718.50
2023-03-30T20:23:58.882Z,96711.28
2023-03-30T20:29:03.052Z,96710.44
2023-03-30T20:34:10.331Z,96705.19
2023-03-30T20:39:14.372Z,96702.81
2023-03-30T20:44:18.183Z,96691.75
2023-03-30T20:49:23.218Z,96696.88
2023-03-30T20:54:26.757Z,96697.59
2023-03-30T20:59:30.925Z,96694.13
2023-03-30T21:04:36.512Z,96693.91
2023-03-30T21:09:40.736Z,96686.47
2023-03-30T21:14:45.922Z,96687.22
2023-03-30T21:19:50.802Z,96685.69
2023-03-30T21:24:54.150Z,96681.97
2023-03-30T21:29:57.568Z,96674.94
2023-03-30T21:35:02.375Z,96664.72
2023-03-30T21:40:07.280Z,96664.53
2023-03-30T21:45:12.111Z,96653.47
2023-03-30T21:50:17.002Z,96641.38
2023-03-30T21:55:20.262Z,96645.81
2023-03-30T22:00:23.653Z,96651.66
2023-03-30T22:05:28.422Z,96651.47
2023-03-30T22:10:31.658Z,96649.38
2023-03-30T22:15:35.179Z,96636.75
2023-03-30T22:20:41.462Z,96623.78
2023-03-30T22:25:44.758Z,96625.63
2023-03-30T22:30:48.165Z,96626.00
2023-03-30T22:35:53.058Z,96619.75
2023-03-30T22:41:04.619Z,96612.28
2023-03-30T22:46:10.356Z,96606.66
2023-03-30T22:51:23.591Z,96613.94
2023-03-30T22:56:29.061Z,96612.91
2023-03-30T23:01:32.773Z,96620.91
2023-03-30T23:06:37.562Z,96623.78
2023-03-30T23:11:42.632Z,96609.72
2023-03-30T23:16:46.113Z,96620.78
2023-03-30T23:21:52.508Z,96612.59
2023-03-30T23:26:55.873Z,96603.53
2023-03-30T23:31:59.546Z,96585.28
2023-03-30T23:37:04.119Z,96579.91
2023-03-30T23:42:07.648Z,96583.56
2023-03-30T23:47:10.948Z,96568.66
2023-03-30T23:52:15.690Z,96558.06
2023-03-30T23:57:19.297Z,96551.25
